Sana, Yemen

11:28 PM AST on November 26, 2014 (GMT +0300)
Sanaa International | Change Station
CLOSE
Current Station
Airport
Location: Sana,
Elevation: 7215 ft
Nearby Weather Stations

Elev 7215 ft 15.48 °N, 44.22 °E | Updated 28 minutes ago

Scattered Clouds
Scattered Clouds
63 °F
Feels Like 63 °F
N
5
Wind Variable Wind from East

Today
High -- | Low -- °F
--% Chance of Precip.
Yesterday
High -- | Low -- °F
Precip. -- in
6:10 AM 5:29 PM
Waxing Crescent, 22% visible
Pressure 30.30 in
Visibility 6.2 miles
Clouds Scattered Clouds 3000 ft
Dew Point 34 °F
Humidity 34%
Rainfall 0.00 in
Snow Depth Not available.
UV 0 out of 12
Pollen Not available.
Air Quality Not available.
Flu Activity Not available.
METAR OYSN 262000Z 09004KT 9999 SCT030 17/01 Q1026 NOSIG

More Conditions Fewer Conditions

Pressure 30.30 in
Visibility 6.2 miles
Clouds Scattered Clouds 3000 ft
Dew Point 34 °F
Humidity 34%
Rainfall 0.00 in
Snow Depth Not available.
UV 0 out of 12
Pollen Not available.
Air Quality Not available.
Flu Activity Not available.
METAR OYSN 262000Z 09004KT 9999 SCT030 17/01 Q1026 NOSIG

More Conditions Fewer Conditions

10-Day Weather Forecast

Almanac

Astronomy

Nov. 26, 2014 Rise Set
Actual Time
Civil Twilight
Nautical Twilight
Astronomical Twilight
Moon
Length of Visible Light
Length of Day
Tomorrow will be .
, % of the Moon is Illuminated

Today's Extremes

Country Highs Country Lows

Community

WunderPhotos

Upload Photos

1,773,853 photos uploaded!

WunderBlogs® & News

Nearby

Air Quality

  Air Quality AQ Index Pollutant
Not available.

Snow Depth

Station Depth Elevation

Earthquake Activity

City Distance Mag. Time & Date
Minimum magnitude displayed is 2.5.

Coastal Water Temperatures

Place Temperature

Nearby Weather Stations